createdAt,value
2022-11-05T00:01:42.208Z,59.42
2022-11-05T00:04:35.861Z,59.36
2022-11-05T00:07:24.156Z,59.38
2022-11-05T00:09:52.864Z,59.34
2022-11-05T00:12:46.338Z,59.24
2022-11-05T00:15:31.647Z,59.37
2022-11-05T00:18:00.450Z,59.29
2022-11-05T00:20:27.923Z,59.18
2022-11-05T00:23:18.573Z,59.21
2022-11-05T00:25:54.490Z,59.13
2022-11-05T00:28:21.994Z,59.34
2022-11-05T00:30:49.511Z,59.10
2022-11-05T00:33:18.358Z,59.30
2022-11-05T00:35:45.875Z,59.29
2022-11-05T00:38:13.381Z,59.19
2022-11-05T00:40:40.874Z,59.03
2022-11-05T00:43:26.129Z,59.25
2022-11-05T00:45:53.586Z,59.16
2022-11-05T00:48:40.191Z,58.98
2022-11-05T00:51:07.887Z,59.01
2022-11-05T00:53:35.517Z,59.20
2022-11-05T00:56:03.076Z,58.84
2022-11-05T00:58:30.603Z,59.04
2022-11-05T01:00:58.908Z,58.79
2022-11-05T01:03:28.560Z,58.95
2022-11-05T01:05:56.769Z,59.12
2022-11-05T01:08:25.105Z,58.97
2022-11-05T01:10:53.548Z,58.79
2022-11-05T01:13:23.394Z,58.79
2022-11-05T01:15:51.641Z,59.01
2022-11-05T01:18:19.234Z,58.92
2022-11-05T01:20:48.050Z,59.06
2022-11-05T01:23:15.823Z,58.79
2022-11-05T01:25:43.627Z,58.66
2022-11-05T01:28:11.116Z,58.84
2022-11-05T01:30:38.650Z,58.87
2022-11-05T01:33:06.252Z,58.67
2022-11-05T01:35:33.745Z,58.70
2022-11-05T01:38:02.524Z,58.78
2022-11-05T01:40:29.937Z,58.69
2022-11-05T01:42:57.368Z,58.70
2022-11-05T01:45:25.070Z,58.70
2022-11-05T01:48:00.915Z,58.83
2022-11-05T01:50:37.247Z,58.58
2022-11-05T01:53:10.981Z,58.63
2022-11-05T01:55:40.416Z,58.70
2022-11-05T01:58:08.374Z,58.73
2022-11-05T02:00:35.929Z,58.60
2022-11-05T02:03:03.467Z,58.69
2022-11-05T02:05:30.945Z,58.62
2022-11-05T02:07:58.390Z,58.49
2022-11-05T02:10:27.172Z,58.47
2022-11-05T02:12:54.618Z,58.53
2022-11-05T02:15:26.178Z,58.69
2022-11-05T02:17:57.770Z,58.46
2022-11-05T02:20:36.821Z,58.37
2022-11-05T02:23:45.820Z,58.36
2022-11-05T02:26:44.451Z,58.37
2022-11-05T02:29:56.357Z,58.41
2022-11-05T02:32:31.964Z,58.32
2022-11-05T02:35:05.213Z,58.43
2022-11-05T02:37:38.940Z,58.42
2022-11-05T02:40:10.293Z,58.33
2022-11-05T02:42:41.200Z,58.30
2022-11-05T02:45:11.707Z,58.35
2022-11-05T02:47:42.643Z,58.29
2022-11-05T02:50:17.198Z,58.14
2022-11-05T02:52:47.464Z,58.12
2022-11-05T02:55:19.990Z,58.04
2022-11-05T02:57:47.977Z,58.21
2022-11-05T03:00:45.013Z,58.17
2022-11-05T03:03:18.760Z,58.07
2022-11-05T03:05:57.107Z,58.20
2022-11-05T03:08:34.519Z,58.07
2022-11-05T03:11:03.374Z,57.96
2022-11-05T03:13:33.148Z,58.01
2022-11-05T03:16:01.850Z,57.89
2022-11-05T03:18:33.252Z,57.96
2022-11-05T03:21:03.546Z,57.90
2022-11-05T03:23:34.640Z,57.76
2022-11-05T03:26:05.457Z,57.71
2022-11-05T03:28:35.131Z,57.91
2022-11-05T03:31:02.604Z,57.84
2022-11-05T03:33:32.375Z,57.91
2022-11-05T03:36:02.144Z,57.73
2022-11-05T03:38:35.759Z,57.93
2022-11-05T03:41:05.987Z,57.72
2022-11-05T03:43:35.373Z,57.78
2022-11-05T03:46:03.829Z,57.86
2022-11-05T03:48:32.651Z,57.73
2022-11-05T03:51:01.455Z,57.78
2022-11-05T03:53:29.649Z,57.75
2022-11-05T03:56:00.091Z,57.82
2022-11-05T03:58:27.583Z,57.84
2022-11-05T04:00:55.013Z,57.82
2022-11-05T04:03:22.447Z,57.85
2022-11-05T04:06:13.092Z,57.77
2022-11-05T04:08:59.298Z,57.80
2022-11-05T04:11:44.604Z,57.83
2022-11-05T04:14:12.053Z,57.86
2022-11-05T04:16:53.457Z,57.76
2022-11-05T04:19:41.360Z,57.89
2022-11-05T04:22:27.927Z,57.83
2022-11-05T04:24:55.364Z,57.72
2022-11-05T04:27:22.792Z,57.82
2022-11-05T04:30:08.008Z,57.68
2022-11-05T04:32:35.469Z,57.70
2022-11-05T04:35:02.900Z,57.72
2022-11-05T04:37:31.694Z,57.84
2022-11-05T04:39:59.106Z,57.72
2022-11-05T04:42:26.547Z,57.77
2022-11-05T04:44:54.018Z,57.71
2022-11-05T04:47:21.451Z,57.77
2022-11-05T04:49:48.883Z,57.75
2022-11-05T04:52:17.808Z,57.84
2022-11-05T04:54:46.556Z,57.78
2022-11-05T04:57:14.030Z,57.73
2022-11-05T04:59:41.485Z,57.73
2022-11-05T05:02:09.078Z,57.81
2022-11-05T05:04:36.606Z,57.77
2022-11-05T05:07:04.036Z,57.80
2022-11-05T05:09:31.473Z,57.74
2022-11-05T05:12:01.219Z,57.78
2022-11-05T05:14:28.661Z,57.84
2022-11-05T05:16:56.095Z,57.89
2022-11-05T05:19:24.875Z,57.85
2022-11-05T05:21:51.354Z,57.77
2022-11-05T05:24:20.928Z,57.83
2022-11-05T05:26:49.395Z,57.80
2022-11-05T05:29:18.425Z,57.77
2022-11-05T05:31:45.885Z,57.88
2022-11-05T05:34:14.025Z,57.88
2022-11-05T05:36:41.574Z,57.86
2022-11-05T05:39:10.695Z,57.66
2022-11-05T05:41:38.126Z,57.78
2022-11-05T05:44:05.648Z,57.76
2022-11-05T05:46:34.431Z,57.73
2022-11-05T05:49:01.896Z,57.71
2022-11-05T05:51:29.337Z,57.36
2022-11-05T05:53:56.800Z,57.70
2022-11-05T05:56:24.247Z,57.71
2022-11-05T05:58:52.175Z,57.76
2022-11-05T06:01:20.323Z,57.65
2022-11-05T06:03:49.315Z,57.70
2022-11-05T06:06:19.498Z,57.82
2022-11-05T06:08:47.340Z,57.77
2022-11-05T06:11:14.784Z,57.74
2022-11-05T06:13:42.243Z,57.76
2022-11-05T06:16:10.034Z,57.82
2022-11-05T06:18:37.648Z,57.64
2022-11-05T06:21:07.420Z,57.80
2022-11-05T06:23:35.263Z,57.67
2022-11-05T06:26:02.733Z,57.64
2022-11-05T06:28:30.546Z,57.35
2022-11-05T06:30:58.018Z,57.77
2022-11-05T06:33:25.498Z,57.77
2022-11-05T06:35:52.984Z,57.86
2022-11-05T06:38:21.771Z,57.76
2022-11-05T06:40:49.206Z,57.75
2022-11-05T06:43:16.665Z,57.74
2022-11-05T06:45:44.108Z,57.80
2022-11-05T06:48:11.554Z,57.60
2022-11-05T06:50:38.988Z,57.76
2022-11-05T06:53:06.404Z,57.69
2022-11-05T06:55:35.188Z,57.76
2022-11-05T06:58:02.690Z,57.62
2022-11-05T07:00:30.224Z,57.65
2022-11-05T07:03:04.556Z,57.77
2022-11-05T07:05:32.265Z,57.84
2022-11-05T07:07:59.700Z,57.64
2022-11-05T07:10:27.131Z,57.60
2022-11-05T07:12:55.896Z,57.74
2022-11-05T07:15:23.392Z,57.61
2022-11-05T07:17:50.841Z,57.55
2022-11-05T07:20:18.415Z,57.79
2022-11-05T07:22:45.838Z,57.62
2022-11-05T07:25:13.258Z,57.67
2022-11-05T07:27:40.775Z,57.63
2022-11-05T07:30:10.582Z,57.62
2022-11-05T07:32:39.229Z,57.63
2022-11-05T07:35:07.852Z,57.70
2022-11-05T07:37:42.277Z,57.64
2022-11-05T07:40:11.008Z,57.67
2022-11-05T07:42:38.471Z,57.62
2022-11-05T07:45:06.803Z,57.76
2022-11-05T07:47:37.257Z,57.63
2022-11-05T07:50:04.957Z,57.69
2022-11-05T07:52:32.491Z,57.60
2022-11-05T07:55:00.010Z,57.61
2022-11-05T07:57:27.472Z,57.58
2022-11-05T07:59:55.057Z,57.55
2022-11-05T08:02:22.743Z,57.65
2022-11-05T08:04:51.713Z,57.58
2022-11-05T08:07:19.169Z,57.61
2022-11-05T08:09:46.638Z,57.45
2022-11-05T08:12:14.106Z,57.52
2022-11-05T08:14:41.553Z,57.70
2022-11-05T08:17:09.038Z,57.82
2022-11-05T08:19:36.480Z,57.72
2022-11-05T08:22:05.267Z,57.71
2022-11-05T08:24:32.741Z,57.76
2022-11-05T08:27:00.238Z,57.84
2022-11-05T08:29:27.708Z,58.05
2022-11-05T08:31:55.166Z,58.07
2022-11-05T08:34:22.812Z,58.05
2022-11-05T08:36:50.267Z,57.87
2022-11-05T08:39:19.784Z,57.94
2022-11-05T08:41:47.839Z,57.82
2022-11-05T08:44:15.368Z,57.88
2022-11-05T08:46:42.784Z,58.03
2022-11-05T08:49:10.223Z,58.02
2022-11-05T08:51:38.335Z,58.03
2022-11-05T08:54:06.301Z,57.99
2022-11-05T08:56:35.068Z,58.14
2022-11-05T08:59:02.515Z,57.89
2022-11-05T09:01:30.142Z,57.83
2022-11-05T09:03:57.776Z,57.99
2022-11-05T09:06:25.201Z,57.81
2022-11-05T09:08:52.670Z,57.76
2022-11-05T09:11:20.111Z,57.81
2022-11-05T09:13:48.945Z,57.84
2022-11-05T09:16:18.967Z,57.76
2022-11-05T09:18:46.412Z,58.03
2022-11-05T09:21:13.930Z,58.08
2022-11-05T09:23:41.430Z,58.03
2022-11-05T09:26:09.798Z,57.84
2022-11-05T09:28:37.296Z,58.13
2022-11-05T09:31:08.223Z,57.95
2022-11-05T09:33:36.113Z,57.89
2022-11-05T09:36:03.626Z,57.67
2022-11-05T09:38:31.584Z,57.70
2022-11-05T09:41:00.637Z,57.82
2022-11-05T09:43:32.209Z,57.58
2022-11-05T09:46:00.563Z,57.76
2022-11-05T09:48:30.227Z,57.71
2022-11-05T09:50:58.137Z,57.92
2022-11-05T09:53:25.600Z,57.89
2022-11-05T09:55:54.657Z,57.92
2022-11-05T09:58:28.750Z,57.73
2022-11-05T10:00:56.729Z,57.41
2022-11-05T10:03:24.509Z,57.37
2022-11-05T10:05:53.382Z,57.65
2022-11-05T10:08:22.216Z,57.52
2022-11-05T10:10:50.972Z,57.75
2022-11-05T10:13:22.807Z,57.60
2022-11-05T10:15:55.108Z,57.45
2022-11-05T10:18:24.582Z,57.61
2022-11-05T10:20:53.365Z,57.54
2022-11-05T10:23:21.527Z,57.60
2022-11-05T10:25:49.807Z,57.50
2022-11-05T10:28:19.366Z,57.58
2022-11-05T10:30:47.686Z,57.51
2022-11-05T10:33:17.304Z,57.75
2022-11-05T10:35:48.439Z,57.62
2022-11-05T10:38:17.220Z,57.51
2022-11-05T10:40:49.959Z,57.62
2022-11-05T10:43:18.986Z,57.81
2022-11-05T10:45:55.209Z,57.66
2022-11-05T10:48:32.884Z,57.70
2022-11-05T10:51:00.318Z,57.65
2022-11-05T10:53:30.956Z,57.63
2022-11-05T10:55:59.110Z,57.71
2022-11-05T10:58:28.835Z,57.67
2022-11-05T11:01:08.218Z,57.83
2022-11-05T11:03:39.875Z,57.67
2022-11-05T11:06:13.105Z,57.64
2022-11-05T11:08:41.898Z,57.75
2022-11-05T11:11:11.514Z,57.62
2022-11-05T11:13:50.138Z,57.75
2022-11-05T11:16:20.691Z,57.70
2022-11-05T11:18:48.158Z,57.53
2022-11-05T11:21:16.735Z,57.70
2022-11-05T11:23:45.523Z,57.71
2022-11-05T11:26:12.946Z,57.85
2022-11-05T11:28:41.948Z,57.90
2022-11-05T11:31:10.504Z,57.85
2022-11-05T11:33:38.296Z,57.91
2022-11-05T11:36:06.172Z,57.81
2022-11-05T11:38:36.009Z,57.93
2022-11-05T11:41:09.716Z,57.82
2022-11-05T11:43:38.253Z,57.72
2022-11-05T11:46:09.893Z,57.75
2022-11-05T11:48:40.824Z,57.88
2022-11-05T11:51:17.398Z,57.85
2022-11-05T11:53:44.827Z,58.00
2022-11-05T11:56:20.376Z,58.05
2022-11-05T11:58:49.046Z,57.95
2022-11-05T12:01:57.946Z,58.22
2022-11-05T12:04:42.185Z,57.86
2022-11-05T12:07:15.625Z,58.39
2022-11-05T12:09:54.158Z,58.22
2022-11-05T12:12:24.389Z,58.35
2022-11-05T12:14:54.170Z,58.16
2022-11-05T12:17:27.008Z,58.27
2022-11-05T12:20:02.315Z,58.45
2022-11-05T12:22:34.438Z,58.21
2022-11-05T12:25:11.594Z,58.44
2022-11-05T12:27:48.100Z,58.39
2022-11-05T12:30:16.752Z,58.21
2022-11-05T12:33:04.263Z,58.19
2022-11-05T12:35:45.719Z,58.08
2022-11-05T12:38:21.122Z,58.20
2022-11-05T12:40:56.781Z,58.12
2022-11-05T12:43:31.126Z,57.87
2022-11-05T12:46:01.383Z,57.95
2022-11-05T12:48:52.392Z,57.76
2022-11-05T12:51:28.743Z,57.75
2022-11-05T12:54:02.095Z,57.83
2022-11-05T12:56:33.051Z,57.64
2022-11-05T12:59:06.738Z,57.66
2022-11-05T13:01:35.913Z,57.68
2022-11-05T13:04:08.586Z,57.63
2022-11-05T13:06:39.580Z,57.85
2022-11-05T13:09:09.965Z,57.88
2022-11-05T13:11:38.646Z,57.82
2022-11-05T13:14:10.088Z,57.93
2022-11-05T13:16:38.711Z,57.97
2022-11-05T13:19:11.736Z,57.80
2022-11-05T13:21:39.182Z,58.00
2022-11-05T13:24:10.588Z,57.75
2022-11-05T13:26:39.591Z,57.80
2022-11-05T13:29:10.188Z,57.79
2022-11-05T13:31:39.108Z,57.88
2022-11-05T13:34:10.325Z,57.65
2022-11-05T13:37:00.629Z,57.77
2022-11-05T13:39:29.999Z,57.76
2022-11-05T13:42:19.542Z,57.81
2022-11-05T13:45:07.651Z,57.66
2022-11-05T13:48:09.808Z,57.82
2022-11-05T13:50:52.464Z,57.62
2022-11-05T13:53:58.523Z,57.61
2022-11-05T13:56:38.062Z,57.53
2022-11-05T13:59:17.825Z,57.68
2022-11-05T14:01:49.642Z,57.61
2022-11-05T14:04:25.952Z,57.79
2022-11-05T14:06:53.392Z,57.63
2022-11-05T14:09:25.688Z,57.64
2022-11-05T14:11:54.914Z,57.36
2022-11-05T14:14:23.497Z,57.65
2022-11-05T14:16:54.177Z,57.60
2022-11-05T14:19:35.635Z,57.69
2022-11-05T14:22:36.166Z,57.75
2022-11-05T14:25:25.313Z,57.64
2022-11-05T14:27:52.896Z,57.86
2022-11-05T14:30:41.218Z,57.87
2022-11-05T14:33:18.195Z,57.75
2022-11-05T14:35:45.645Z,57.83
2022-11-05T14:38:20.691Z,57.76
2022-11-05T14:40:49.113Z,58.01
2022-11-05T14:43:21.352Z,57.84
2022-11-05T14:45:56.415Z,58.00
2022-11-05T14:48:28.182Z,57.89
2022-11-05T14:50:55.648Z,57.86
2022-11-05T14:53:27.798Z,57.85
2022-11-05T14:55:58.894Z,57.83
2022-11-05T14:58:29.107Z,57.92
2022-11-05T15:00:56.542Z,57.87
2022-11-05T15:03:41.099Z,58.09
2022-11-05T15:06:28.011Z,57.92
2022-11-05T15:09:20.103Z,58.04
2022-11-05T15:11:53.622Z,58.00
2022-11-05T15:14:22.718Z,58.22
2022-11-05T15:16:51.164Z,58.21
2022-11-05T15:19:22.843Z,57.98
2022-11-05T15:21:50.528Z,58.18
2022-11-05T15:24:18.542Z,58.20
2022-11-05T15:26:48.331Z,58.28
2022-11-05T15:29:17.478Z,58.19
2022-11-05T15:31:45.353Z,58.42
2022-11-05T15:34:22.889Z,58.58
2022-11-05T15:36:54.723Z,58.57
2022-11-05T15:39:29.485Z,58.66
2022-11-05T15:41:57.606Z,58.65
2022-11-05T15:44:29.488Z,58.76
2022-11-05T15:47:17.735Z,58.70
2022-11-05T15:49:47.355Z,58.50
2022-11-05T15:52:15.477Z,58.83
2022-11-05T15:54:43.532Z,58.70
2022-11-05T15:57:20.812Z,58.71
2022-11-05T15:59:48.356Z,58.78
2022-11-05T16:02:28.731Z,58.68
2022-11-05T16:04:57.666Z,58.81
2022-11-05T16:07:25.142Z,58.68
2022-11-05T16:09:54.222Z,58.84
2022-11-05T16:12:34.082Z,58.92
2022-11-05T16:15:04.695Z,58.73
2022-11-05T16:17:34.130Z,58.74
2022-11-05T16:20:03.057Z,58.86
2022-11-05T16:22:45.260Z,58.88
2022-11-05T16:25:28.290Z,59.01
2022-11-05T16:27:55.809Z,58.88
2022-11-05T16:30:23.516Z,58.89
2022-11-05T16:32:50.978Z,58.95
2022-11-05T16:35:21.347Z,58.83
2022-11-05T16:37:51.983Z,58.94
2022-11-05T16:40:20.928Z,58.98
2022-11-05T16:42:51.143Z,58.94
2022-11-05T16:45:18.723Z,59.06
2022-11-05T16:47:46.412Z,59.06
2022-11-05T16:50:20.293Z,59.10
2022-11-05T16:52:48.066Z,58.99
2022-11-05T16:55:15.877Z,58.92
2022-11-05T16:57:43.995Z,58.93
2022-11-05T17:00:14.196Z,58.87
2022-11-05T17:02:41.615Z,59.15
2022-11-05T17:05:23.121Z,59.17
2022-11-05T17:07:50.597Z,59.14
2022-11-05T17:10:18.191Z,59.04
2022-11-05T17:12:45.743Z,59.13
2022-11-05T17:15:18.119Z,59.01
2022-11-05T17:17:45.635Z,59.08
2022-11-05T17:20:15.763Z,59.12
2022-11-05T17:22:44.347Z,59.06
2022-11-05T17:25:11.833Z,59.14
2022-11-05T17:27:39.286Z,59.00
2022-11-05T17:30:08.305Z,59.18
2022-11-05T17:32:35.805Z,59.14
2022-11-05T17:35:03.558Z,59.16
2022-11-05T17:37:31.008Z,59.27
2022-11-05T17:39:59.816Z,59.15
2022-11-05T17:42:27.277Z,59.07
2022-11-05T17:44:54.727Z,59.18
2022-11-05T17:47:22.161Z,59.20
2022-11-05T17:49:49.610Z,59.17
2022-11-05T17:52:17.032Z,59.11
2022-11-05T17:54:44.458Z,59.19
2022-11-05T17:57:13.208Z,59.17
2022-11-05T17:59:41.932Z,59.20
2022-11-05T18:02:10.526Z,59.24
2022-11-05T18:04:38.115Z,59.27
2022-11-05T18:07:05.681Z,59.17
2022-11-05T18:09:33.145Z,59.22
2022-11-05T18:12:00.593Z,59.32
2022-11-05T18:14:29.428Z,59.20
2022-11-05T18:17:00.204Z,59.20
2022-11-05T18:19:28.139Z,59.18
2022-11-05T18:21:55.683Z,59.07
2022-11-05T18:24:23.208Z,59.20
2022-11-05T18:26:50.858Z,59.09
2022-11-05T18:29:18.307Z,59.19
2022-11-05T18:31:47.036Z,59.23
2022-11-05T18:34:14.483Z,59.16
2022-11-05T18:36:41.929Z,59.14
2022-11-05T18:39:09.450Z,59.20
2022-11-05T18:41:36.887Z,59.05
2022-11-05T18:44:04.507Z,59.15
2022-11-05T18:49:21.088Z,59.16
2022-11-05T18:51:48.563Z,59.15
2022-11-05T18:54:16.000Z,59.05
2022-11-05T18:56:45.753Z,59.08
2022-11-05T18:59:35.285Z,59.23
2022-11-05T19:02:01.109Z,59.00
2022-11-05T19:04:30.508Z,59.15
2022-11-05T19:07:01.656Z,59.09
2022-11-05T19:09:32.121Z,59.13
2022-11-05T19:11:59.559Z,59.15
2022-11-05T19:14:27.037Z,59.24
2022-11-05T19:16:54.477Z,59.09
2022-11-05T19:19:23.112Z,59.10
2022-11-05T19:21:51.934Z,59.17
2022-11-05T19:24:19.383Z,58.87
2022-11-05T19:26:47.440Z,59.16
2022-11-05T19:29:14.881Z,59.10
2022-11-05T19:31:42.327Z,58.94
2022-11-05T19:34:09.947Z,59.10
2022-11-05T19:36:37.384Z,59.15
2022-11-05T19:39:08.647Z,58.91
2022-11-05T19:41:36.139Z,59.10
2022-11-05T19:44:03.691Z,59.11
2022-11-05T19:46:31.442Z,59.21
2022-11-05T19:48:59.964Z,59.06
2022-11-05T19:51:29.117Z,59.04
2022-11-05T19:53:56.870Z,58.84
2022-11-05T19:56:27.095Z,59.08
2022-11-05T19:58:54.499Z,59.07
2022-11-05T20:01:22.876Z,59.02
2022-11-05T20:03:50.462Z,59.04
2022-11-05T20:06:18.801Z,58.97
2022-11-05T20:09:20.188Z,59.03
2022-11-05T20:11:36.757Z,59.03
2022-11-05T20:14:04.792Z,58.87
2022-11-05T20:16:36.799Z,58.93
2022-11-05T20:19:04.761Z,58.90
2022-11-05T20:21:32.202Z,59.06
2022-11-05T20:23:59.764Z,59.02
2022-11-05T20:26:27.289Z,59.11
2022-11-05T20:28:56.132Z,59.06
2022-11-05T20:31:23.689Z,59.08
2022-11-05T20:33:51.151Z,58.93
2022-11-05T20:36:19.326Z,58.97
2022-11-05T20:38:48.787Z,58.96
2022-11-05T20:41:16.401Z,58.98
2022-11-05T20:43:43.982Z,59.00
2022-11-05T20:46:14.431Z,58.96
2022-11-05T20:48:42.143Z,58.75
2022-11-05T20:51:10.750Z,58.80
2022-11-05T20:53:38.503Z,58.88
2022-11-05T20:56:08.410Z,58.89
2022-11-05T20:58:36.286Z,58.91
2022-11-05T21:01:03.767Z,58.92
2022-11-05T21:03:32.536Z,58.87
2022-11-05T21:06:00.188Z,58.84
2022-11-05T21:08:27.682Z,58.93
2022-11-05T21:10:55.127Z,58.89
2022-11-05T21:13:22.587Z,58.82
2022-11-05T21:15:51.114Z,58.83
2022-11-05T21:18:18.906Z,58.90
2022-11-05T21:20:47.760Z,58.79
2022-11-05T21:23:15.505Z,58.68
2022-11-05T21:25:43.258Z,58.79
2022-11-05T21:28:11.506Z,58.79
2022-11-05T21:30:41.882Z,58.84
2022-11-05T21:33:09.303Z,58.70
2022-11-05T21:35:39.783Z,58.81
2022-11-05T21:38:08.553Z,58.92
2022-11-05T21:40:36.022Z,58.88
2022-11-05T21:43:03.460Z,59.01
2022-11-05T21:45:30.943Z,58.85
2022-11-05T21:47:58.388Z,58.93
2022-11-05T21:50:46.063Z,58.95
2022-11-05T21:53:32.647Z,58.90
2022-11-05T21:56:18.039Z,58.70
2022-11-05T21:59:03.525Z,58.84
2022-11-05T22:01:31.592Z,58.88
2022-11-05T22:04:03.036Z,58.99
2022-11-05T22:06:33.063Z,58.99
2022-11-05T22:09:01.821Z,58.82
2022-11-05T22:11:29.281Z,58.72
2022-11-05T22:13:56.756Z,58.74
2022-11-05T22:16:24.228Z,58.65
2022-11-05T22:18:51.725Z,58.62
2022-11-05T22:21:19.472Z,58.69
2022-11-05T22:23:47.051Z,58.65
2022-11-05T22:26:16.419Z,58.48
2022-11-05T22:28:43.903Z,58.58
2022-11-05T22:31:13.335Z,58.62
2022-11-05T22:33:40.795Z,58.58
2022-11-05T22:36:08.759Z,58.60
2022-11-05T22:38:36.201Z,58.59
2022-11-05T22:41:07.780Z,58.53
2022-11-05T22:43:36.554Z,58.58
2022-11-05T22:46:05.506Z,58.56
2022-11-05T22:48:33.180Z,58.93
2022-11-05T22:51:03.601Z,58.63
2022-11-05T22:53:31.160Z,58.66
2022-11-05T22:55:58.753Z,58.63
2022-11-05T22:58:26.205Z,58.60
2022-11-05T23:00:54.998Z,58.66
2022-11-05T23:03:22.445Z,58.50
2022-11-05T23:05:57.443Z,58.54
2022-11-05T23:08:42.372Z,58.56
2022-11-05T23:11:32.406Z,58.72
2022-11-05T23:13:59.864Z,58.58
2022-11-05T23:17:00.853Z,58.51
2022-11-05T23:19:45.962Z,58.43
2022-11-05T23:22:31.511Z,58.48
2022-11-05T23:24:58.956Z,58.61
2022-11-05T23:27:29.610Z,58.68
2022-11-05T23:29:58.386Z,58.62
2022-11-05T23:34:45.917Z,58.69
2022-11-05T23:37:31.136Z,58.60
2022-11-05T23:39:58.633Z,58.57
2022-11-05T23:42:43.729Z,58.62
2022-11-05T23:45:29.387Z,58.44
2022-11-05T23:48:15.016Z,58.58
2022-11-05T23:50:44.726Z,58.54
2022-11-05T23:53:12.264Z,58.61
2022-11-05T23:55:40.350Z,58.75
2022-11-05T23:58:08.256Z,58.56
